Time;durP1;ratioP1;P1;durP2;ratioP2;P2;SDS_P1;SDS_P2;PMS_P1;PMS_P2;Temp;Humidity;BMP_temperature;BMP_pressure;BME280_temperature;BME280_humidity;BME280_pressure;Samples;Min_cycle;Max_cycle;Signal;HPM_P1;HPM_P2
2021/03/04 00:00:30;;;;;;;52.17;32.27;;;4.10;99.90;;;;;;5045315;28;20566;-50
2021/03/04 00:02:58;;;;;;;51.17;31.20;;;4.10;99.90;;;;;;5041978;28;20487;-50
2021/03/04 00:05:25;;;;;;;51.13;32.37;;;4.10;99.90;;;;;;5020207;28;20535;-51
2021/03/04 00:07:53;;;;;;;53.83;32.27;;;4.10;99.90;;;;;;5021234;28;20244;-50
2021/03/04 00:10:23;;;;;;;59.97;33.33;;;4.10;99.90;;;;;;5013214;28;20476;-50
2021/03/04 00:12:52;;;;;;;56.03;32.37;;;4.20;99.90;;;;;;5017535;28;20972;-51
2021/03/04 00:15:21;;;;;;;58.93;32.83;;;4.20;99.90;;;;;;5020381;28;20478;-51
2021/03/04 00:17:50;;;;;;;56.83;35.20;;;4.10;99.90;;;;;;5025366;28;20994;-51
2021/03/04 00:20:21;;;;;;;56.60;35.53;;;4.10;99.90;;;;;;5024725;28;20592;-50
2021/03/04 00:22:48;;;;;;;63.57;39.13;;;4.10;99.90;;;;;;5024985;28;20588;-50
2021/03/04 00:25:18;;;;;;;60.60;38.07;;;4.00;99.90;;;;;;5024402;28;20541;-55
2021/03/04 00:27:50;;;;;;;63.60;37.93;;;4.00;99.90;;;;;;5025316;28;20485;-51
2021/03/04 00:30:20;;;;;;;63.77;38.07;;;3.90;99.90;;;;;;5024506;28;20487;-53
2021/03/04 00:32:48;;;;;;;62.87;38.83;;;4.00;99.90;;;;;;5012945;28;20545;-52
2021/03/04 00:35:16;;;;;;;67.20;40.53;;;3.90;99.90;;;;;;5005269;28;20483;-51
2021/03/04 00:37:43;;;;;;;69.63;42.53;;;3.90;99.90;;;;;;5005377;28;20483;-53
2021/03/04 00:40:13;;;;;;;70.63;42.07;;;3.90;99.90;;;;;;5004895;28;20550;-50
2021/03/04 00:42:41;;;;;;;66.43;39.30;;;3.90;99.90;;;;;;5011403;28;20517;-52
2021/03/04 00:45:12;;;;;;;65.57;38.37;;;3.80;99.90;;;;;;5037684;28;20479;-50
2021/03/04 00:47:43;;;;;;;57.67;37.17;;;3.80;99.90;;;;;;5024579;28;20481;-51
2021/03/04 00:50:12;;;;;;;58.83;37.47;;;3.70;99.90;;;;;;5030066;28;20508;-51
2021/03/04 00:52:40;;;;;;;59.37;36.60;;;3.70;99.90;;;;;;5026161;28;20565;-50
2021/03/04 00:55:08;;;;;;;60.63;35.80;;;3.70;99.90;;;;;;5028104;28;21132;-51
2021/03/04 00:57:35;;;;;;;59.53;35.70;;;3.60;99.90;;;;;;5035138;28;20978;-50
2021/03/04 01:00:05;;;;;;;56.77;35.97;;;3.60;99.90;;;;;;5030825;28;20475;-52
2021/03/04 01:02:34;;;;;;;57.40;36.80;;;3.60;99.90;;;;;;5021724;28;21098;-50
2021/03/04 01:05:04;;;;;;;55.03;34.63;;;3.60;99.90;;;;;;5031097;28;20478;-50
2021/03/04 01:07:32;;;;;;;54.70;34.40;;;3.60;99.90;;;;;;5035245;28;20500;-51
2021/03/04 01:10:00;;;;;;;56.97;35.00;;;3.50;99.90;;;;;;5039757;28;20484;-51
2021/03/04 01:12:27;;;;;;;56.83;36.03;;;3.50;99.90;;;;;;5043022;28;20901;-51
2021/03/04 01:14:54;;;;;;;54.50;33.37;;;3.60;99.90;;;;;;5052189;28;20661;-50
2021/03/04 01:17:22;;;;;;;54.87;34.87;;;3.60;99.90;;;;;;5024098;28;20577;-50
2021/03/04 01:19:50;;;;;;;50.57;31.83;;;3.60;99.90;;;;;;5023920;28;20486;-50
2021/03/04 01:22:18;;;;;;;49.50;31.83;;;3.60;99.90;;;;;;5023954;28;20565;-52
2021/03/04 01:24:45;;;;;;;46.30;30.77;;;3.50;99.90;;;;;;5023315;28;21517;-51
2021/03/04 01:27:12;;;;;;;49.57;31.47;;;3.50;99.90;;;;;;5024722;28;20953;-52
2021/03/04 01:29:40;;;;;;;51.60;31.23;;;3.50;99.90;;;;;;5024461;28;20478;-51
2021/03/04 01:32:08;;;;;;;50.73;31.73;;;3.40;99.90;;;;;;5024323;28;20705;-51
2021/03/04 01:34:36;;;;;;;49.00;29.30;;;3.40;99.90;;;;;;5023864;28;20470;-51
2021/03/04 01:37:04;;;;;;;43.67;28.23;;;3.40;99.90;;;;;;5025848;28;20525;-53
2021/03/04 01:39:31;;;;;;;44.37;29.07;;;3.40;99.90;;;;;;5037012;28;20530;-50
2021/03/04 01:41:59;;;;;;;44.10;28.13;;;3.40;99.90;;;;;;5052767;28;20488;-50
2021/03/04 01:44:26;;;;;;;45.97;28.10;;;3.40;99.90;;;;;;5047281;28;21038;-50
2021/03/04 01:46:53;;;;;;;42.37;29.07;;;3.40;99.90;;;;;;5046326;28;20508;-51
2021/03/04 01:49:22;;;;;;;40.07;26.80;;;3.50;99.90;;;;;;5034811;28;20512;-49
2021/03/04 01:51:49;;;;;;;41.93;27.87;;;3.50;99.90;;;;;;5036300;28;20477;-50
2021/03/04 01:54:18;;;;;;;42.03;27.37;;;3.50;99.90;;;;;;5038196;28;20540;-50
2021/03/04 01:56:46;;;;;;;37.83;26.60;;;3.50;99.90;;;;;;5042405;28;20478;-50
2021/03/04 01:59:14;;;;;;;37.67;25.77;;;3.50;99.90;;;;;;5027753;28;20559;-50
2021/03/04 02:01:41;;;;;;;36.43;24.07;;;3.50;99.90;;;;;;5032280;28;21045;-52
2021/03/04 02:04:09;;;;;;;35.43;23.50;;;3.50;99.90;;;;;;5035154;28;20523;-50
2021/03/04 02:06:44;;;;;;;31.13;21.67;;;3.50;99.90;;;;;;5040423;28;20954;-50
2021/03/04 02:09:12;;;;;;;28.70;19.67;;;3.60;99.90;;;;;;5038543;28;20523;-50
2021/03/04 02:11:48;;;;;;;29.53;20.17;;;3.60;99.90;;;;;;5030804;28;20521;-50
2021/03/04 02:14:22;;;;;;;31.07;20.90;;;3.50;99.90;;;;;;5027300;28;20943;-50
2021/03/04 02:16:55;;;;;;;29.67;18.63;;;3.50;99.90;;;;;;5027491;28;21144;-53
2021/03/04 02:19:38;;;;;;;26.63;18.23;;;3.50;99.90;;;;;;5027209;28;20901;-50
2021/03/04 02:22:23;;;;;;;27.37;17.60;;;3.50;99.90;;;;;;5027415;28;21293;-52
2021/03/04 02:25:00;;;;;;;26.93;17.77;;;3.50;99.90;;;;;;5007122;28;20890;-50
2021/03/04 02:27:29;;;;;;;21.47;15.13;;;3.50;99.90;;;;;;5020646;28;20811;-51
2021/03/04 02:30:05;;;;;;;20.87;13.73;;;3.50;99.90;;;;;;5019751;28;20480;-51
2021/03/04 02:32:43;;;;;;;20.57;13.33;;;3.40;99.90;;;;;;5006938;28;20968;-50
2021/03/04 02:35:17;;;;;;;18.47;11.83;;;3.40;99.90;;;;;;5007281;28;20488;-50
2021/03/04 02:37:50;;;;;;;14.90;9.90;;;3.40;99.90;;;;;;5029400;28;20482;-50
2021/03/04 02:40:20;;;;;;;15.33;9.67;;;3.40;99.90;;;;;;5046979;28;20504;-50
2021/03/04 02:42:50;;;;;;;14.97;10.00;;;3.30;99.90;;;;;;5047055;28;20978;-50
2021/03/04 02:45:21;;;;;;;13.60;9.83;;;3.30;99.90;;;;;;5041305;28;20565;-50
2021/03/04 02:47:49;;;;;;;15.30;9.63;;;3.30;99.90;;;;;;5040286;28;20494;-52
2021/03/04 02:50:17;;;;;;;15.00;9.53;;;3.20;99.90;;;;;;5036136;28;21045;-53
2021/03/04 02:52:45;;;;;;;14.80;9.77;;;3.20;99.90;;;;;;5032544;28;21007;-51
2021/03/04 02:55:14;;;;;;;14.00;10.13;;;3.20;99.90;;;;;;5036313;28;21080;-55
2021/03/04 02:57:47;;;;;;;14.10;9.73;;;3.30;99.90;;;;;;5058257;28;21089;-51
2021/03/04 03:00:20;;;;;;;14.43;9.90;;;3.30;99.90;;;;;;5036282;28;20556;-53
2021/03/04 03:03:16;;;;;;;16.57;9.93;;;3.30;99.90;;;;;;5036642;28;20482;-51
2021/03/04 03:05:46;;;;;;;14.60;10.10;;;3.30;99.90;;;;;;5039666;28;20470;-51
2021/03/04 03:08:16;;;;;;;15.53;10.90;;;3.20;99.90;;;;;;5044605;28;20502;-54
2021/03/04 03:10:46;;;;;;;16.80;11.47;;;3.30;99.90;;;;;;5046543;28;20527;-51
2021/03/04 03:13:14;;;;;;;17.67;11.47;;;3.30;99.90;;;;;;5046956;28;20483;-53
2021/03/04 03:15:42;;;;;;;15.17;11.13;;;3.30;99.90;;;;;;5045687;28;20484;-53
2021/03/04 03:18:11;;;;;;;16.63;11.10;;;3.30;99.90;;;;;;5025152;28;20481;-50
2021/03/04 03:20:39;;;;;;;16.40;10.93;;;3.40;99.90;;;;;;983749;28;10001938;-50
2021/03/04 03:23:06;;;;;;;14.00;9.93;;;3.40;99.90;;;;;;5046375;28;20328;-50
2021/03/04 03:25:33;;;;;;;13.17;9.27;;;3.40;99.90;;;;;;5011760;28;20526;-51
2021/03/04 03:28:01;;;;;;;15.67;10.30;;;3.30;99.90;;;;;;5006843;28;20575;-51
2021/03/04 03:30:30;;;;;;;15.70;10.07;;;3.30;99.90;;;;;;5008877;28;20529;-51
2021/03/04 03:33:08;;;;;;;16.97;10.13;;;3.40;99.90;;;;;;5026371;28;20482;-54
2021/03/04 03:35:37;;;;;;;11.80;8.87;;;3.40;99.90;;;;;;5025911;28;20525;-51
2021/03/04 03:38:06;;;;;;;13.30;9.50;;;3.40;99.90;;;;;;5047971;28;21053;-50
2021/03/04 03:40:36;;;;;;;14.73;9.83;;;3.40;99.90;;;;;;5021747;28;20512;-50
2021/03/04 03:43:10;;;;;;;12.70;9.13;;;3.40;99.90;;;;;;5025845;28;20568;-50
2021/03/04 03:45:41;;;;;;;12.27;9.03;;;3.40;99.90;;;;;;5025150;28;21055;-50
2021/03/04 03:48:13;;;;;;;11.77;9.27;;;3.40;99.90;;;;;;5022745;28;20535;-50
2021/03/04 03:50:44;;;;;;;13.13;9.53;;;3.50;99.90;;;;;;5025100;28;20482;-51
2021/03/04 03:53:13;;;;;;;13.23;9.60;;;3.50;99.90;;;;;;5030150;28;20516;-51
2021/03/04 03:55:41;;;;;;;11.70;9.17;;;3.50;99.90;;;;;;5025814;28;20522;-50
2021/03/04 03:58:10;;;;;;;12.87;9.57;;;3.50;99.90;;;;;;5025385;28;20864;-51
2021/03/04 04:00:38;;;;;;;12.30;10.23;;;3.60;99.90;;;;;;5022501;28;20471;-51
2021/03/04 04:03:10;;;;;;;13.37;10.07;;;3.60;99.90;;;;;;5025059;28;20508;-50
2021/03/04 04:05:39;;;;;;;13.70;9.70;;;3.50;99.90;;;;;;5024700;28;20479;-51
2021/03/04 04:08:06;;;;;;;11.20;8.60;;;3.50;99.90;;;;;;5025598;28;20507;-50
2021/03/04 04:10:38;;;;;;;10.43;9.10;;;3.70;99.90;;;;;;5025251;28;20950;-55
2021/03/04 04:13:18;;;;;;;12.87;9.00;;;3.70;99.90;;;;;;5005223;28;20578;-50
2021/03/04 04:15:46;;;;;;;11.13;8.70;;;3.60;99.90;;;;;;5019831;28;20589;-51
2021/03/04 04:18:16;;;;;;;14.30;10.03;;;3.60;99.90;;;;;;5025227;28;20570;-54
2021/03/04 04:20:49;;;;;;;10.60;9.13;;;3.80;99.90;;;;;;5025376;28;20472;-53
2021/03/04 04:23:19;;;;;;;12.03;9.07;;;3.70;99.90;;;;;;5025558;28;20493;-54
2021/03/04 04:25:50;;;;;;;13.23;8.90;;;3.80;99.90;;;;;;5025324;28;20496;-52
2021/03/04 04:28:18;;;;;;;12.87;9.87;;;3.90;99.90;;;;;;5040303;28;20535;-50
2021/03/04 04:30:45;;;;;;;11.03;9.53;;;3.80;99.90;;;;;;5013249;28;21008;-50
2021/03/04 04:33:20;;;;;;;9.67;8.60;;;3.90;99.90;;;;;;5005639;28;20517;-50
2021/03/04 04:35:48;;;;;;;11.03;9.00;;;3.90;99.90;;;;;;5005612;28;20553;-50
2021/03/04 04:38:17;;;;;;;10.13;9.03;;;3.80;99.90;;;;;;5005398;28;20550;-51
2021/03/04 04:40:45;;;;;;;13.07;9.10;;;3.80;99.90;;;;;;5027790;28;20884;-51
2021/03/04 04:43:12;;;;;;;11.03;8.70;;;3.80;99.90;;;;;;5034111;28;20497;-51
2021/03/04 04:45:40;;;;;;;11.43;8.40;;;3.80;99.90;;;;;;5029026;28;21057;-50
2021/03/04 04:48:08;;;;;;;11.20;8.50;;;3.80;99.90;;;;;;5033694;28;20491;-50
2021/03/04 04:50:37;;;;;;;9.30;8.30;;;3.80;99.90;;;;;;5031914;28;20483;-50
2021/03/04 04:53:04;;;;;;;10.67;7.90;;;3.80;99.90;;;;;;5053382;28;20482;-50
2021/03/04 04:55:32;;;;;;;11.03;8.53;;;3.80;99.90;;;;;;5026558;28;20552;-50
2021/03/04 04:58:01;;;;;;;9.87;7.90;;;3.70;99.90;;;;;;5030567;28;20578;-51
2021/03/04 05:00:29;;;;;;;8.87;7.50;;;3.80;99.90;;;;;;5026490;28;20544;-50
2021/03/04 05:02:56;;;;;;;9.27;7.17;;;3.80;99.90;;;;;;5039136;28;20630;-50
2021/03/04 05:05:24;;;;;;;9.70;7.63;;;3.80;99.90;;;;;;5028385;28;21002;-49
2021/03/04 05:07:52;;;;;;;9.40;7.00;;;3.70;99.90;;;;;;5045640;28;20473;-51
2021/03/04 05:10:20;;;;;;;13.17;7.07;;;3.70;99.90;;;;;;5046049;28;21036;-52
2021/03/04 05:12:47;;;;;;;8.83;6.67;;;3.70;99.90;;;;;;5039396;28;20477;-50
2021/03/04 05:15:15;;;;;;;8.13;6.60;;;3.70;99.90;;;;;;5038101;28;20549;-52
2021/03/04 05:17:42;;;;;;;8.70;6.70;;;3.70;99.90;;;;;;5037145;28;20584;-52
2021/03/04 05:20:14;;;;;;;11.60;6.80;;;3.60;99.90;;;;;;5043810;28;20485;-52
2021/03/04 05:22:41;;;;;;;7.90;6.40;;;3.60;99.90;;;;;;5042514;28;20545;-50
2021/03/04 05:25:11;;;;;;;11.43;7.00;;;3.60;99.90;;;;;;5038649;28;20536;-50
2021/03/04 05:27:38;;;;;;;8.10;6.53;;;3.60;99.90;;;;;;5037253;28;20486;-51
2021/03/04 05:30:08;;;;;;;9.60;6.50;;;3.60;99.90;;;;;;5038076;28;20614;-51
2021/03/04 05:32:35;;;;;;;10.00;5.90;;;3.60;99.90;;;;;;5038716;28;21273;-50
2021/03/04 05:35:04;;;;;;;11.57;6.70;;;3.60;99.90;;;;;;5037284;28;20482;-51
2021/03/04 05:37:31;;;;;;;7.73;5.97;;;3.70;99.90;;;;;;5037529;28;20557;-51
2021/03/04 05:39:59;;;;;;;7.20;6.27;;;3.60;99.90;;;;;;5041890;28;21045;-50
2021/03/04 05:42:31;;;;;;;6.77;5.70;;;3.60;99.90;;;;;;5045534;28;20546;-52
2021/03/04 05:44:59;;;;;;;9.13;5.53;;;3.60;99.90;;;;;;5051837;28;20490;-51
2021/03/04 05:47:29;;;;;;;8.50;5.37;;;3.60;99.90;;;;;;5028981;28;20467;-52
2021/03/04 05:50:01;;;;;;;7.63;5.83;;;3.50;99.90;;;;;;5029246;28;20474;-51
2021/03/04 05:52:30;;;;;;;6.63;5.80;;;3.60;99.90;;;;;;5036989;28;20478;-50
2021/03/04 05:54:57;;;;;;;9.47;6.63;;;3.60;99.90;;;;;;5046291;28;20499;-52
2021/03/04 05:57:26;;;;;;;8.43;6.23;;;3.70;99.90;;;;;;5036700;28;20524;-51
2021/03/04 05:59:54;;;;;;;6.00;5.40;;;3.60;99.90;;;;;;5035378;28;20488;-53
2021/03/04 06:02:23;;;;;;;8.83;5.47;;;3.60;99.90;;;;;;5045609;28;20569;-54
2021/03/04 06:04:51;;;;;;;7.27;5.40;;;3.60;99.90;;;;;;5045778;28;20839;-55
2021/03/04 06:07:19;;;;;;;6.47;5.17;;;3.60;99.90;;;;;;5035140;28;20931;-53
2021/03/04 06:09:46;;;;;;;6.10;5.47;;;3.60;99.90;;;;;;5040211;28;20579;-52
2021/03/04 06:12:14;;;;;;;8.03;5.47;;;3.70;99.90;;;;;;5032805;28;21013;-51
2021/03/04 06:14:42;;;;;;;13.30;5.50;;;3.70;99.90;;;;;;5044455;28;20489;-51
2021/03/04 06:17:15;;;;;;;9.57;4.40;;;3.70;99.90;;;;;;5047485;28;20497;-53
2021/03/04 06:19:52;;;;;;;6.90;5.30;;;3.70;99.90;;;;;;5043478;28;20478;-51
2021/03/04 06:22:28;;;;;;;5.90;4.90;;;3.60;99.90;;;;;;5042810;28;20496;-52
2021/03/04 06:24:57;;;;;;;5.57;4.70;;;3.60;99.90;;;;;;5050824;28;20581;-52
2021/03/04 06:27:28;;;;;;;7.03;4.90;;;3.70;99.90;;;;;;5043213;28;20913;-51
2021/03/04 06:29:58;;;;;;;6.87;5.23;;;3.70;99.90;;;;;;5042212;28;20878;-51
2021/03/04 06:32:26;;;;;;;6.23;4.97;;;3.70;99.90;;;;;;5054591;28;21271;-51
2021/03/04 06:35:09;;;;;;;7.73;5.10;;;3.70;99.90;;;;;;5047832;28;20860;-54
2021/03/04 06:37:38;;;;;;;7.20;4.77;;;4.20;99.90;;;;;;5031137;28;20490;-51
2021/03/04 06:40:17;;;;;;;7.57;4.43;;;4.00;99.90;;;;;;5029209;28;20556;-51
2021/03/04 06:42:46;;;;;;;7.70;4.50;;;3.80;99.90;;;;;;5031526;28;20517;-52
2021/03/04 06:45:28;;;;;;;9.23;4.60;;;3.80;99.90;;;;;;5031735;28;20478;-51
2021/03/04 06:48:10;;;;;;;5.67;4.23;;;3.80;99.90;;;;;;5035488;28;20999;-53
2021/03/04 06:50:40;;;;;;;6.73;5.03;;;3.80;99.90;;;;;;5038191;28;20492;-52
2021/03/04 06:53:18;;;;;;;7.73;4.83;;;3.80;99.90;;;;;;5039837;28;20577;-50
2021/03/04 06:55:54;;;;;;;9.67;5.20;;;3.90;99.90;;;;;;5034691;28;20507;-51
2021/03/04 06:58:30;;;;;;;8.17;5.17;;;3.90;99.90;;;;;;5035324;28;20478;-51
2021/03/04 07:01:07;;;;;;;7.43;5.10;;;3.80;99.90;;;;;;5041856;28;20481;-50
2021/03/04 07:03:37;;;;;;;5.43;4.63;;;3.90;99.90;;;;;;5033233;28;20573;-51
2021/03/04 07:06:06;;;;;;;7.93;5.00;;;3.90;99.90;;;;;;5036035;28;21127;-51
2021/03/04 07:08:36;;;;;;;7.63;4.90;;;3.90;99.90;;;;;;5035654;28;20488;-54
2021/03/04 07:11:06;;;;;;;9.97;5.23;;;3.90;99.90;;;;;;5027765;28;20476;-52
2021/03/04 07:13:35;;;;;;;8.03;4.23;;;3.90;99.90;;;;;;5029245;28;20498;-52
2021/03/04 07:16:09;;;;;;;9.13;4.67;;;3.90;99.90;;;;;;5043926;28;20509;-54
2021/03/04 07:18:40;;;;;;;7.87;4.50;;;3.90;99.90;;;;;;5043972;28;20960;-52
2021/03/04 07:21:11;;;;;;;5.17;4.33;;;4.00;99.90;;;;;;5051850;28;20492;-50
2021/03/04 07:23:41;;;;;;;7.97;4.57;;;4.00;99.90;;;;;;5044517;28;20624;-50
2021/03/04 07:26:11;;;;;;;6.03;4.93;;;4.00;99.90;;;;;;5025538;28;20510;-51
2021/03/04 07:28:41;;;;;;;6.43;4.47;;;4.10;99.90;;;;;;5051009;28;20566;-51
2021/03/04 07:31:11;;;;;;;8.07;4.97;;;4.10;99.90;;;;;;5062761;28;20787;-51
2021/03/04 07:33:44;;;;;;;8.90;4.90;;;4.10;99.90;;;;;;5050234;28;20476;-50
2021/03/04 07:36:13;;;;;;;7.63;4.80;;;4.10;99.90;;;;;;5034376;28;20615;-51
2021/03/04 07:38:41;;;;;;;7.90;4.90;;;4.10;99.90;;;;;;5041278;28;21031;-49
2021/03/04 07:41:10;;;;;;;9.37;4.90;;;4.10;99.90;;;;;;5037697;28;20478;-51
2021/03/04 07:43:50;;;;;;;6.73;4.63;;;4.10;99.90;;;;;;5045845;28;20489;-50
2021/03/04 07:46:30;;;;;;;6.50;5.30;;;4.20;99.90;;;;;;5044962;28;20568;-53
2021/03/04 07:48:58;;;;;;;8.67;4.27;;;4.20;99.90;;;;;;5034897;28;20816;-50
2021/03/04 07:51:27;;;;;;;5.93;4.53;;;4.30;99.90;;;;;;5034781;28;20954;-50
2021/03/04 07:53:56;;;;;;;5.90;3.97;;;4.30;99.90;;;;;;5044150;28;20234;-50
2021/03/04 07:56:26;;;;;;;7.07;4.67;;;4.30;99.90;;;;;;5036349;28;20479;-51
2021/03/04 07:58:54;;;;;;;6.40;4.63;;;4.30;99.90;;;;;;5032716;28;20521;-53
2021/03/04 08:01:22;;;;;;;8.53;4.83;;;4.40;99.90;;;;;;5037205;28;20934;-50
2021/03/04 08:03:52;;;;;;;8.90;4.30;;;4.40;99.90;;;;;;5035999;28;20490;-53
2021/03/04 08:06:19;;;;;;;8.07;4.60;;;4.40;99.90;;;;;;5030500;28;20231;-51
2021/03/04 08:08:48;;;;;;;8.20;5.00;;;4.50;99.90;;;;;;5036923;28;20318;-51
2021/03/04 08:11:26;;;;;;;7.73;4.43;;;4.50;99.90;;;;;;5035947;28;20740;-54
2021/03/04 08:13:54;;;;;;;8.87;4.50;;;4.60;99.90;;;;;;5036060;28;20508;-50
2021/03/04 08:16:21;;;;;;;5.93;4.20;;;4.60;99.90;;;;;;5033904;28;20529;-51
2021/03/04 08:18:59;;;;;;;6.33;3.93;;;4.60;99.90;;;;;;5035618;28;20480;-50
2021/03/04 08:21:27;;;;;;;6.73;3.93;;;4.60;99.90;;;;;;5034610;28;20551;-50
2021/03/04 08:23:54;;;;;;;7.27;3.93;;;4.60;99.90;;;;;;5036665;28;20470;-50
2021/03/04 08:26:24;;;;;;;7.53;3.80;;;4.70;99.90;;;;;;5038086;28;20582;-50
2021/03/04 08:29:04;;;;;;;6.50;3.80;;;4.70;99.90;;;;;;5037673;28;20912;-51
2021/03/04 08:31:33;;;;;;;4.70;3.50;;;4.70;99.90;;;;;;5026290;28;20513;-51
2021/03/04 08:34:01;;;;;;;5.07;3.47;;;4.80;99.90;;;;;;5037608;28;20525;-54
2021/03/04 08:36:42;;;;;;;7.47;4.00;;;4.80;99.90;;;;;;5033494;28;20325;-51
2021/03/04 08:39:09;;;;;;;6.07;3.33;;;4.80;99.90;;;;;;5026660;28;20537;-50
2021/03/04 08:41:38;;;;;;;7.50;4.00;;;4.90;99.90;;;;;;5034401;28;20649;-50
2021/03/04 08:44:13;;;;;;;5.20;3.83;;;4.90;99.90;;;;;;5035788;28;20644;-51
2021/03/04 08:46:42;;;;;;;7.10;3.70;;;4.90;99.90;;;;;;5039556;28;20488;-50
2021/03/04 08:49:14;;;;;;;5.63;3.63;;;5.00;99.90;;;;;;5026929;28;20482;-51
2021/03/04 08:51:44;;;;;;;7.87;4.27;;;5.00;99.90;;;;;;5020638;28;20251;-51
2021/03/04 08:54:30;;;;;;;7.93;4.20;;;5.00;99.90;;;;;;5019598;28;20478;-51
2021/03/04 08:57:02;;;;;;;7.57;4.67;;;5.10;99.90;;;;;;5033436;28;20518;-51
2021/03/04 08:59:30;;;;;;;8.87;5.97;;;5.10;99.90;;;;;;5037217;28;20792;-50
2021/03/04 09:01:59;;;;;;;10.53;6.00;;;5.10;99.90;;;;;;5031790;28;20701;-51
2021/03/04 09:04:29;;;;;;;10.17;6.50;;;5.10;99.90;;;;;;5039164;28;20661;-50
2021/03/04 09:06:56;;;;;;;10.37;7.13;;;5.10;99.90;;;;;;5039046;28;20477;-51
2021/03/04 09:09:26;;;;;;;10.13;7.43;;;5.10;99.90;;;;;;5027946;28;20487;-51
2021/03/04 09:11:55;;;;;;;11.27;7.70;;;5.10;99.90;;;;;;5033079;28;20232;-50
2021/03/04 09:14:27;;;;;;;10.23;7.77;;;5.10;99.90;;;;;;5032156;28;20235;-51
2021/03/04 09:16:55;;;;;;;10.97;7.20;;;5.10;99.90;;;;;;5028476;28;20835;-52
2021/03/04 09:19:32;;;;;;;11.03;8.37;;;5.10;99.90;;;;;;5039944;28;20227;-51
2021/03/04 09:22:04;;;;;;;12.60;8.10;;;5.10;99.90;;;;;;5038584;28;20771;-51
2021/03/04 09:24:34;;;;;;;10.33;8.27;;;5.10;99.90;;;;;;5038416;28;21001;-50
2021/03/04 09:27:06;;;;;;;9.10;7.10;;;5.10;99.90;;;;;;5036497;28;20714;-51
2021/03/04 09:29:38;;;;;;;12.63;7.80;;;5.10;99.90;;;;;;5036553;28;20259;-52
2021/03/04 09:32:06;;;;;;;10.13;7.27;;;5.10;99.90;;;;;;5036155;28;20297;-52
2021/03/04 09:34:38;;;;;;;12.57;8.37;;;5.20;99.90;;;;;;5030277;28;20250;-51
2021/03/04 09:37:08;;;;;;;11.77;7.77;;;5.30;99.90;;;;;;5032366;28;20469;-51
2021/03/04 09:39:42;;;;;;;8.70;6.43;;;5.40;99.90;;;;;;5035092;28;20228;-50
2021/03/04 09:42:11;;;;;;;10.37;8.10;;;5.50;99.90;;;;;;5037891;28;20270;-50
2021/03/04 09:44:50;;;;;;;13.17;8.13;;;5.70;99.90;;;;;;5039926;28;21041;-51
2021/03/04 09:47:20;;;;;;;11.97;8.17;;;5.90;99.90;;;;;;5041053;28;20611;-53
2021/03/04 09:49:49;;;;;;;9.60;7.23;;;6.10;99.90;;;;;;5045855;28;20750;-52
2021/03/04 09:52:20;;;;;;;7.97;6.87;;;6.30;99.90;;;;;;5017055;28;20239;-50
2021/03/04 09:55:10;;;;;;;10.83;7.00;;;6.40;99.90;;;;;;5019224;28;20313;-52
2021/03/04 09:57:40;;;;;;;9.63;6.73;;;6.50;99.90;;;;;;5035061;28;20506;-50
2021/03/04 10:00:23;;;;;;;9.23;7.20;;;6.80;99.90;;;;;;5035869;28;20241;-50
2021/03/04 10:02:57;;;;;;;11.47;7.40;;;7.00;99.90;;;;;;5033047;28;20236;-51
2021/03/04 10:05:26;;;;;;;11.33;6.83;;;7.10;99.90;;;;;;5046605;28;20270;-50
2021/03/04 10:07:56;;;;;;;7.93;6.40;;;7.10;99.90;;;;;;5048052;28;20262;-51
2021/03/04 10:10:24;;;;;;;9.50;6.37;;;7.10;99.90;;;;;;5047960;28;20224;-50
2021/03/04 10:12:54;;;;;;;8.40;6.30;;;7.00;99.90;;;;;;5042484;28;20235;-51
2021/03/04 10:15:30;;;;;;;11.03;6.70;;;6.90;99.90;;;;;;5038681;28;20743;-50
2021/03/04 10:18:01;;;;;;;8.90;6.50;;;6.80;99.90;;;;;;5040242;28;20247;-50
2021/03/04 10:20:30;;;;;;;11.13;6.20;;;6.80;99.90;;;;;;5027304;28;20240;-50
2021/03/04 10:22:58;;;;;;;10.37;6.23;;;6.70;99.90;;;;;;5038482;28;20402;-51
2021/03/04 10:25:26;;;;;;;9.40;6.60;;;6.60;99.90;;;;;;5040370;28;20232;-50
2021/03/04 10:27:55;;;;;;;8.43;6.37;;;6.60;99.90;;;;;;5034470;28;20244;-51
2021/03/04 10:30:47;;;;;;;9.50;6.50;;;6.50;99.90;;;;;;5037188;28;20242;-51
2021/03/04 10:33:15;;;;;;;10.43;6.53;;;6.50;99.90;;;;;;5043694;28;20723;-51
2021/03/04 10:35:44;;;;;;;9.07;6.30;;;6.50;99.90;;;;;;5037876;28;20519;-49
2021/03/04 10:38:12;;;;;;;9.13;5.33;;;6.50;99.90;;;;;;5045102;28;20319;-51
2021/03/04 10:40:40;;;;;;;9.67;6.27;;;6.50;99.90;;;;;;5029517;28;20243;-51
2021/03/04 10:43:08;;;;;;;11.23;6.27;;;6.60;99.90;;;;;;5029268;28;20240;-50
2021/03/04 10:45:36;;;;;;;9.80;5.50;;;6.80;99.90;;;;;;5037524;28;20774;-52
2021/03/04 10:48:06;;;;;;;10.90;5.43;;;7.00;99.90;;;;;;5019167;28;20241;-50
2021/03/04 10:50:34;;;;;;;7.73;5.47;;;7.00;99.90;;;;;;5014968;28;20245;-51
2021/03/04 10:53:03;;;;;;;8.87;5.60;;;6.90;99.90;;;;;;5027998;28;20307;-50
2021/03/04 10:55:40;;;;;;;10.10;4.73;;;6.90;99.90;;;;;;5031271;28;20303;-50
2021/03/04 10:58:08;;;;;;;9.67;4.10;;;6.80;99.90;;;;;;5017449;28;20648;-52
2021/03/04 11:00:36;;;;;;;12.10;4.20;;;6.80;99.90;;;;;;5024863;28;20263;-53
2021/03/04 11:03:05;;;;;;;10.73;4.20;;;6.70;99.90;;;;;;5036253;28;20244;-50
2021/03/04 11:05:33;;;;;;;9.33;4.30;;;6.60;99.90;;;;;;5037372;28;20227;-52
2021/03/04 11:08:01;;;;;;;11.53;4.57;;;6.60;99.90;;;;;;5034955;28;20336;-51
2021/03/04 11:10:29;;;;;;;10.23;4.23;;;6.60;99.90;;;;;;5039276;28;20242;-49
2021/03/04 11:12:56;;;;;;;7.70;3.73;;;6.70;99.90;;;;;;5038367;28;20312;-51
2021/03/04 11:15:24;;;;;;;10.90;4.17;;;6.70;99.90;;;;;;5035467;28;20639;-50
2021/03/04 11:17:52;;;;;;;10.00;3.33;;;6.60;99.90;;;;;;5036878;28;20268;-53
2021/03/04 11:20:19;;;;;;;14.10;3.37;;;6.40;99.90;;;;;;5034750;28;21183;-52
2021/03/04 11:22:47;;;;;;;9.93;3.03;;;6.40;99.90;;;;;;5034926;28;20232;-50
2021/03/04 11:25:15;;;;;;;7.90;2.50;;;6.40;99.90;;;;;;5031864;28;20701;-50
2021/03/04 11:27:43;;;;;;;11.83;2.77;;;6.40;99.90;;;;;;5035659;28;20443;-50
2021/03/04 11:30:12;;;;;;;8.70;2.53;;;6.60;99.90;;;;;;5033929;28;20270;-51
2021/03/04 11:32:39;;;;;;;7.30;2.30;;;6.70;99.90;;;;;;5035827;28;20227;-50
2021/03/04 11:35:08;;;;;;;9.63;2.40;;;6.60;99.90;;;;;;5036169;28;20775;-50
2021/03/04 11:37:36;;;;;;;9.83;2.57;;;6.50;99.90;;;;;;5035585;28;20239;-51
2021/03/04 11:40:05;;;;;;;10.20;2.97;;;6.60;99.90;;;;;;5032209;28;20244;-52
2021/03/04 11:42:34;;;;;;;9.50;2.80;;;6.60;99.90;;;;;;5041304;28;20245;-51
2021/03/04 11:45:01;;;;;;;8.73;2.40;;;6.50;99.90;;;;;;5029948;28;20820;-50
2021/03/04 11:47:29;;;;;;;9.13;2.93;;;6.50;99.90;;;;;;5028645;28;20249;-52
2021/03/04 11:49:56;;;;;;;7.97;2.50;;;6.40;99.90;;;;;;5029528;28;20323;-51
2021/03/04 11:52:24;;;;;;;14.00;3.03;;;6.40;99.90;;;;;;5028364;28;20318;-52
2021/03/04 11:54:51;;;;;;;11.80;3.37;;;6.40;99.90;;;;;;5019655;28;20253;-53
2021/03/04 11:57:18;;;;;;;9.37;2.40;;;6.30;99.90;;;;;;5034635;28;20589;-51
2021/03/04 11:59:46;;;;;;;9.40;2.60;;;6.30;99.90;;;;;;5025170;28;20275;-51
2021/03/04 12:02:14;;;;;;;10.33;2.87;;;6.30;99.90;;;;;;5033299;28;20696;-52
2021/03/04 12:04:42;;;;;;;8.20;2.50;;;6.30;99.90;;;;;;5045179;28;20231;-50
2021/03/04 12:07:09;;;;;;;9.90;3.03;;;6.30;99.90;;;;;;5030616;28;20270;-51
2021/03/04 12:09:36;;;;;;;8.70;2.20;;;6.30;99.90;;;;;;5034837;28;20319;-55
2021/03/04 12:12:04;;;;;;;7.73;2.67;;;6.30;99.90;;;;;;5035967;28;20320;-52
2021/03/04 12:14:32;;;;;;;8.60;2.87;;;6.40;99.90;;;;;;5035576;28;20277;-54
2021/03/04 12:17:00;;;;;;;7.00;2.90;;;6.40;99.90;;;;;;5062394;28;20253;-50
2021/03/04 12:19:28;;;;;;;12.13;2.73;;;6.30;99.90;;;;;;5065009;28;20235;-50
2021/03/04 12:21:55;;;;;;;12.67;3.17;;;6.30;99.90;;;;;;5061666;28;20224;-51
2021/03/04 12:24:23;;;;;;;8.97;2.50;;;6.20;99.90;;;;;;5034090;28;20231;-51
2021/03/04 12:26:52;;;;;;;11.20;2.90;;;6.30;99.90;;;;;;5038948;28;20236;-51
2021/03/04 12:29:19;;;;;;;12.53;3.27;;;6.30;99.90;;;;;;5026490;28;20723;-52
2021/03/04 12:31:46;;;;;;;9.60;2.73;;;6.20;99.90;;;;;;5036223;28;20259;-52
2021/03/04 12:34:15;;;;;;;7.67;2.70;;;6.20;99.90;;;;;;5046293;28;20237;-51
2021/03/04 12:36:43;;;;;;;11.03;3.20;;;6.20;99.90;;;;;;5038512;28;20742;-52
2021/03/04 12:39:12;;;;;;;10.03;2.87;;;6.20;99.90;;;;;;5032253;28;20738;-51
2021/03/04 12:41:39;;;;;;;12.83;3.47;;;6.20;99.90;;;;;;5039520;28;20236;-52
2021/03/04 12:44:08;;;;;;;9.43;2.80;;;6.20;99.90;;;;;;5038900;28;20259;-51
2021/03/04 12:46:35;;;;;;;9.97;3.27;;;6.20;99.90;;;;;;5025736;28;20244;-51
2021/03/04 12:49:03;;;;;;;10.20;3.13;;;6.20;99.90;;;;;;5018853;28;20240;-52
2021/03/04 12:51:32;;;;;;;12.20;3.50;;;6.20;99.90;;;;;;5025572;28;20267;-54
2021/03/04 12:54:00;;;;;;;8.47;3.20;;;6.20;99.90;;;;;;5020145;28;20240;-52
2021/03/04 12:56:28;;;;;;;11.33;3.00;;;6.20;99.90;;;;;;5020789;28;20225;-50
2021/03/04 12:58:56;;;;;;;16.13;3.50;;;6.20;99.90;;;;;;5022928;28;20232;-50
2021/03/04 13:01:27;;;;;;;13.13;3.53;;;6.20;99.90;;;;;;5021483;28;20232;-50